• Join FlightAware (Why Join?)
  • Login
  • US Flag 
09:27PM EDT


 

Airport Tracker/Info


-or-


 

Live Flight TrackerFlight Track Log ✈ FLG3735 ✈ 06-Jun-2013 ✈ KDTW - KALB

Flight Track Log - Related Links

Times and Time Zones

All times are in EDT time to prevent confusion due to time zone crossing. See the FLG3735 flight status page for this flight to view local times or setup timezone preferences in your user account.

Time Position Orientation Groundspeed Altitude Reporting Facility
EDT Latitude Longitude Course Direction KTS MPH feet Rate Location/Type
10:08PM 42.2292 -83.3369 71° East 146 168 1,200  Level Cleveland Center
10:09PM 42.2717 -83.2994 33° Northeast 204 235 2,900 1,860 Climbing Cleveland Center
10:10PM 42.3250 -83.2511 34° Northeast 262 302 5,000 2,400 Climbing Cleveland Center
10:11PM 42.2914 -82.8765 75° East  Level FlightAware Approximate
10:11PM 42.3706 -83.1717 52° Northeast 284 327 7,900  Level Cleveland Center
10:12PM 42.3199 -82.7180 82° East  Level FlightAware Approximate
10:12PM 42.3694 -83.1350 92° East 294 338 8,700  Level Cleveland Center
10:13PM 42.3399 -82.5573 71° East  Level FlightAware Approximate
10:13PM 42.3675 -83.0253 91° East 294 338 10,900  Level Cleveland Center
10:14PM 42.3681 -82.8961 90° East 308 354 12,700 1,680 Climbing Cleveland Center
10:15PM 42.3686 -82.7639 90° East 332 382 14,300 1,500 Climbing Cleveland Center
10:17PM 42.3675 -82.4828 90° East 370 426 17,200 1,260 Climbing Cleveland Center
10:18PM 42.3636 -82.3339 92° East 382 440 18,200 1,020 Climbing Cleveland Center
10:19PM 42.3572 -82.1847 93° East 393 452 19,300 960 Climbing Cleveland Center
10:20PM 42.3511 -82.0328 93° East 404 465 20,200 960 Climbing Cleveland Center
10:21PM 42.3447 -81.8642 93° East 424 488 21,300 1,020 Climbing Cleveland Center
10:22PM 42.3381 -81.7122 93° East 424 488 22,300 960 Climbing Cleveland Center
10:23PM 42.3311 -81.5494 93° East 429 494 23,300 900 Climbing Cleveland Center
10:24PM 42.3219 -81.3892 94° East 429 494 24,200 660 Climbing Cleveland Center
10:25PM 42.3125 -81.2036 94° East 441 507 24,700 480 Climbing Cleveland Center
10:26PM 42.3050 -81.0325 93° East 452 520 25,200 480 Climbing Cleveland Center
10:27PM 42.2953 -80.8556 94° East 463 533 25,700 480 Climbing Cleveland Center
10:28PM 42.2872 -80.6786 93° East 463 533 26,200 480 Climbing Cleveland Center
10:29PM 42.2956 -80.4989 86° East 476 548 26,700 540 Climbing Cleveland Center
10:30PM 42.3139 -80.3164 82° East 481 554 27,300 540 Climbing Cleveland Center
10:31PM 42.3322 -80.1339 82° East 481 554 27,800 420 Climbing Cleveland Center
10:32PM 42.3481 -79.9650 83° East 486 559 28,200 420 Climbing Cleveland Center
10:33PM 42.3636 -79.7881 83° East 486 559 28,700 480 Climbing Cleveland Center
10:34PM 42.3811 -79.6022 83° East 486 559 29,200 480 Climbing Cleveland Center
10:35PM 42.3961 -79.4219 84° East 486 559 29,700 480 Climbing Cleveland Center
10:36PM 42.4108 -79.2417 84° East 486 559 30,200 480 Climbing Cleveland Center
10:37PM 42.4294 -79.0586 82° East 486 559 30,700 360 Climbing Cleveland Center
10:38PM 42.4453 -78.8611 84° East 480 552 31,000 120 Climbing Cleveland Center
10:39PM 42.4611 -78.6722 83° East 488 562 31,000  Level Cleveland Center
10:40PM 42.4767 -78.4831 84° East 493 567 31,000  Level Cleveland Center
10:41PM 42.4897 -78.2939 85° East 503 579 31,000  Level Cleveland Center
10:42PM 42.5042 -78.0964 84° East 509 586 31,000  Level Cleveland Center
10:43PM 42.5186 -77.9042 84° East 509 586 31,000 -300 Level Cleveland Center
10:44PM 42.5350 -77.7117 83° East 509 586 30,500 -480 Descending Cleveland Center
10:45PM 42.5508 -77.5167 84° East 516 594 30,100 -480 Descending Cleveland Center
10:46PM 42.5725 -77.1775 85° East 537 618 29,200 -420 Descending Boston Center
10:47PM 42.5844 -76.9867 85° East 518 596 29,000 -120 Descending Boston Center
10:48PM 42.5958 -76.8067 85° East 497 572 29,000  Level Boston Center
10:49PM 42.6067 -76.6269 85° East 478 550 29,000  Level Boston Center
10:50PM 42.6175 -76.4469 85° East 478 550 29,000  Level Boston Center
10:51PM 42.6297 -76.2728 84° East 473 544 29,000 -60 Level Boston Center
10:52PM 42.6400 -76.0814 86° East 462 532 28,900 -720 Descending Boston Center
10:53PM 42.6494 -75.9181 85° East 468 539 27,600 -1,380 Descending Boston Center
10:54PM 42.6558 -75.7717 87° East 475 547 26,200 -1,920 Descending Boston Center
10:55PM 42.6700 -75.5719 84° East 468 539 23,800 -2,220 Descending Boston Center
10:56PM 42.6786 -75.4056 86° East 451 519 21,800 -2,040 Descending Boston Center
10:57PM 42.6722 -75.2472 93° East 428 493 19,800 -2,040 Descending Boston Center
10:58PM 42.6611 -75.0969 96° East 410 472 17,800 -2,040 Descending Boston Center
10:59PM 42.6522 -74.9442 94° East 404 465 15,800 -1,980 Descending Boston Center
11:00PM 42.6367 -74.7856 98° East 397 457 13,900 -1,920 Descending Boston Center
11:01PM 42.6319 -74.7092 95° East 359 413 12,900 -1,800 Descending Boston Center
11:01PM 42.6267 -74.6581 98° East 351 404 12,200 -1,380 Descending Boston Center
11:02PM 42.6167 -74.5308 96° East 346 398 11,000 -960 Descending Boston Center
11:03PM 42.6086 -74.4064 95° East 332 382 10,300 -1,320 Descending Boston Center
11:04PM 42.5958 -74.2847 98° East 303 349 8,400 -1,800 Descending Boston Center
11:05PM 42.5894 -74.1717 94° East 292 336 6,700 -1,500 Descending Boston Center
11:06PM 42.5886 -74.0758 91° East 288 331 5,400 -1,380 Descending Boston Center
11:07PM 42.5903 -73.9714 89° East 258 297 4,000 -1,200 Descending Boston Center
11:08PM 42.5892 -73.8925 91° East 239 275 3,000 -1,020 Descending Boston Center